sensor_id;sensor_type;location;lat;lon;timestamp;P1;durP1;ratioP1;P2;durP2;ratioP2
3095;SDS011;1558;42.700;23.360;2023-08-06T00:00:19;1.00;;;0.90;;
3095;SDS011;1558;42.700;23.360;2023-08-06T00:02:55;0.90;;;0.90;;
3095;SDS011;1558;42.700;23.360;2023-08-06T00:05:24;0.93;;;0.93;;
3095;SDS011;1558;42.700;23.360;2023-08-06T00:08:03;1.17;;;1.07;;
3095;SDS011;1558;42.700;23.360;2023-08-06T00:10:31;0.60;;;0.60;;
3095;SDS011;1558;42.700;23.360;2023-08-06T00:13:01;1.10;;;1.00;;
3095;SDS011;1558;42.700;23.360;2023-08-06T00:15:29;2.37;;;1.37;;
3095;SDS011;1558;42.700;23.360;2023-08-06T00:17:57;0.93;;;0.90;;
3095;SDS011;1558;42.700;23.360;2023-08-06T00:20:25;0.90;;;0.90;;
3095;SDS011;1558;42.700;23.360;2023-08-06T00:22:53;2.07;;;1.13;;
3095;SDS011;1558;42.700;23.360;2023-08-06T00:25:21;0.90;;;0.90;;
3095;SDS011;1558;42.700;23.360;2023-08-06T00:27:49;1.27;;;0.90;;
3095;SDS011;1558;42.700;23.360;2023-08-06T00:30:19;4.10;;;1.10;;
3095;SDS011;1558;42.700;23.360;2023-08-06T00:32:47;0.80;;;0.80;;
3095;SDS011;1558;42.700;23.360;2023-08-06T00:35:16;2.47;;;1.60;;
3095;SDS011;1558;42.700;23.360;2023-08-06T00:37:44;1.83;;;1.07;;
3095;SDS011;1558;42.700;23.360;2023-08-06T00:40:12;0.70;;;0.70;;
3095;SDS011;1558;42.700;23.360;2023-08-06T00:42:40;1.37;;;1.00;;
3095;SDS011;1558;42.700;23.360;2023-08-06T00:45:10;1.83;;;1.40;;
3095;SDS011;1558;42.700;23.360;2023-08-06T00:47:40;1.57;;;1.47;;
3095;SDS011;1558;42.700;23.360;2023-08-06T00:50:08;2.20;;;1.17;;
3095;SDS011;1558;42.700;23.360;2023-08-06T00:52:37;1.10;;;0.97;;
3095;SDS011;1558;42.700;23.360;2023-08-06T00:55:05;2.67;;;2.47;;
3095;SDS011;1558;42.700;23.360;2023-08-06T00:57:34;3.07;;;1.57;;
3095;SDS011;1558;42.700;23.360;2023-08-06T01:00:02;1.60;;;1.50;;
3095;SDS011;1558;42.700;23.360;2023-08-06T01:02:31;1.30;;;1.20;;
3095;SDS011;1558;42.700;23.360;2023-08-06T01:05:01;2.27;;;1.40;;
3095;SDS011;1558;42.700;23.360;2023-08-06T01:07:33;2.00;;;1.60;;
3095;SDS011;1558;42.700;23.360;2023-08-06T01:10:19;5.03;;;1.67;;
3095;SDS011;1558;42.700;23.360;2023-08-06T01:13:04;1.40;;;1.30;;
3095;SDS011;1558;42.700;23.360;2023-08-06T01:15:41;4.30;;;1.37;;
3095;SDS011;1558;42.700;23.360;2023-08-06T01:18:13;1.50;;;1.10;;
3095;SDS011;1558;42.700;23.360;2023-08-06T01:20:43;1.37;;;1.27;;
3095;SDS011;1558;42.700;23.360;2023-08-06T01:23:11;2.17;;;1.47;;
3095;SDS011;1558;42.700;23.360;2023-08-06T01:25:41;1.10;;;0.83;;
3095;SDS011;1558;42.700;23.360;2023-08-06T01:28:23;2.30;;;1.60;;
3095;SDS011;1558;42.700;23.360;2023-08-06T01:31:10;1.20;;;1.10;;
3095;SDS011;1558;42.700;23.360;2023-08-06T01:33:45;2.63;;;1.50;;
3095;SDS011;1558;42.700;23.360;2023-08-06T01:36:17;1.37;;;1.23;;
3095;SDS011;1558;42.700;23.360;2023-08-06T01:38:48;1.53;;;1.43;;
3095;SDS011;1558;42.700;23.360;2023-08-06T01:41:18;1.77;;;1.50;;
3095;SDS011;1558;42.700;23.360;2023-08-06T01:43:46;0.80;;;0.80;;
3095;SDS011;1558;42.700;23.360;2023-08-06T01:46:16;1.20;;;1.10;;
3095;SDS011;1558;42.700;23.360;2023-08-06T01:48:45;2.27;;;1.57;;
3095;SDS011;1558;42.700;23.360;2023-08-06T01:51:13;2.27;;;1.27;;
3095;SDS011;1558;42.700;23.360;2023-08-06T01:53:45;1.10;;;1.00;;
3095;SDS011;1558;42.700;23.360;2023-08-06T01:56:15;0.93;;;0.87;;
3095;SDS011;1558;42.700;23.360;2023-08-06T01:58:45;1.37;;;1.10;;
3095;SDS011;1558;42.700;23.360;2023-08-06T02:01:14;0.90;;;0.90;;
3095;SDS011;1558;42.700;23.360;2023-08-06T02:03:42;1.73;;;1.33;;
3095;SDS011;1558;42.700;23.360;2023-08-06T02:06:16;0.93;;;0.90;;
3095;SDS011;1558;42.700;23.360;2023-08-06T02:08:47;1.87;;;1.13;;
3095;SDS011;1558;42.700;23.360;2023-08-06T02:11:16;1.53;;;1.27;;
3095;SDS011;1558;42.700;23.360;2023-08-06T02:13:48;1.20;;;1.10;;
3095;SDS011;1558;42.700;23.360;2023-08-06T02:16:19;0.80;;;0.80;;
3095;SDS011;1558;42.700;23.360;2023-08-06T02:18:52;0.83;;;0.83;;
3095;SDS011;1558;42.700;23.360;2023-08-06T02:21:23;0.63;;;0.63;;
3095;SDS011;1558;42.700;23.360;2023-08-06T02:23:54;1.13;;;1.00;;
3095;SDS011;1558;42.700;23.360;2023-08-06T02:26:32;1.20;;;1.00;;
3095;SDS011;1558;42.700;23.360;2023-08-06T02:29:02;2.43;;;1.03;;
3095;SDS011;1558;42.700;23.360;2023-08-06T02:31:32;1.00;;;1.00;;
3095;SDS011;1558;42.700;23.360;2023-08-06T02:34:05;1.60;;;1.50;;
3095;SDS011;1558;42.700;23.360;2023-08-06T02:36:33;1.20;;;1.10;;
3095;SDS011;1558;42.700;23.360;2023-08-06T02:39:06;2.13;;;1.10;;
3095;SDS011;1558;42.700;23.360;2023-08-06T02:41:39;1.97;;;1.00;;
3095;SDS011;1558;42.700;23.360;2023-08-06T02:44:09;1.90;;;1.80;;
3095;SDS011;1558;42.700;23.360;2023-08-06T02:46:38;0.80;;;0.80;;
3095;SDS011;1558;42.700;23.360;2023-08-06T02:49:07;2.23;;;1.30;;
3095;SDS011;1558;42.700;23.360;2023-08-06T02:51:35;1.40;;;1.10;;
3095;SDS011;1558;42.700;23.360;2023-08-06T02:54:11;0.93;;;0.93;;
3095;SDS011;1558;42.700;23.360;2023-08-06T02:56:42;0.83;;;0.83;;
3095;SDS011;1558;42.700;23.360;2023-08-06T02:59:11;1.17;;;1.07;;
3095;SDS011;1558;42.700;23.360;2023-08-06T03:01:45;1.73;;;1.10;;
3095;SDS011;1558;42.700;23.360;2023-08-06T03:04:13;1.10;;;1.00;;
3095;SDS011;1558;42.700;23.360;2023-08-06T03:06:42;0.87;;;0.87;;
3095;SDS011;1558;42.700;23.360;2023-08-06T03:09:12;1.57;;;1.13;;
3095;SDS011;1558;42.700;23.360;2023-08-06T03:11:43;1.27;;;1.13;;
3095;SDS011;1558;42.700;23.360;2023-08-06T03:14:19;1.40;;;1.20;;
3095;SDS011;1558;42.700;23.360;2023-08-06T03:16:47;0.73;;;0.73;;
3095;SDS011;1558;42.700;23.360;2023-08-06T03:19:16;2.17;;;1.30;;
3095;SDS011;1558;42.700;23.360;2023-08-06T03:21:44;0.83;;;0.83;;
3095;SDS011;1558;42.700;23.360;2023-08-06T03:24:14;2.20;;;1.03;;
3095;SDS011;1558;42.700;23.360;2023-08-06T03:26:42;1.30;;;1.20;;
3095;SDS011;1558;42.700;23.360;2023-08-06T03:29:10;1.20;;;1.13;;
3095;SDS011;1558;42.700;23.360;2023-08-06T03:31:38;1.33;;;1.23;;
3095;SDS011;1558;42.700;23.360;2023-08-06T03:34:07;1.80;;;1.30;;
3095;SDS011;1558;42.700;23.360;2023-08-06T03:36:35;2.90;;;1.77;;
3095;SDS011;1558;42.700;23.360;2023-08-06T03:39:04;7.30;;;1.30;;
3095;SDS011;1558;42.700;23.360;2023-08-06T03:41:33;1.20;;;1.10;;
3095;SDS011;1558;42.700;23.360;2023-08-06T03:44:01;1.27;;;1.17;;
3095;SDS011;1558;42.700;23.360;2023-08-06T03:46:30;2.50;;;1.73;;
3095;SDS011;1558;42.700;23.360;2023-08-06T03:49:00;1.77;;;1.13;;
3095;SDS011;1558;42.700;23.360;2023-08-06T03:51:28;1.87;;;1.40;;
3095;SDS011;1558;42.700;23.360;2023-08-06T03:53:56;1.30;;;1.20;;
3095;SDS011;1558;42.700;23.360;2023-08-06T03:56:24;1.70;;;1.40;;
3095;SDS011;1558;42.700;23.360;2023-08-06T03:58:54;3.10;;;1.20;;
3095;SDS011;1558;42.700;23.360;2023-08-06T04:01:22;1.17;;;1.17;;
3095;SDS011;1558;42.700;23.360;2023-08-06T04:03:50;1.57;;;1.17;;
3095;SDS011;1558;42.700;23.360;2023-08-06T04:06:18;1.40;;;1.30;;
3095;SDS011;1558;42.700;23.360;2023-08-06T04:08:46;1.53;;;1.30;;
3095;SDS011;1558;42.700;23.360;2023-08-06T04:11:14;1.50;;;1.27;;
3095;SDS011;1558;42.700;23.360;2023-08-06T04:13:42;1.33;;;1.23;;
3095;SDS011;1558;42.700;23.360;2023-08-06T04:16:12;2.70;;;1.33;;
3095;SDS011;1558;42.700;23.360;2023-08-06T04:18:41;0.77;;;0.77;;
3095;SDS011;1558;42.700;23.360;2023-08-06T04:21:09;1.00;;;0.90;;
3095;SDS011;1558;42.700;23.360;2023-08-06T04:23:37;1.87;;;1.20;;
3095;SDS011;1558;42.700;23.360;2023-08-06T04:26:05;0.87;;;0.87;;
3095;SDS011;1558;42.700;23.360;2023-08-06T04:28:33;1.30;;;1.20;;
3095;SDS011;1558;42.700;23.360;2023-08-06T04:31:01;1.20;;;1.10;;
3095;SDS011;1558;42.700;23.360;2023-08-06T04:33:31;1.07;;;1.00;;
3095;SDS011;1558;42.700;23.360;2023-08-06T04:36:00;1.40;;;1.30;;
3095;SDS011;1558;42.700;23.360;2023-08-06T04:38:28;1.37;;;1.27;;
3095;SDS011;1558;42.700;23.360;2023-08-06T04:40:56;1.43;;;1.33;;
3095;SDS011;1558;42.700;23.360;2023-08-06T04:43:24;1.03;;;1.03;;
3095;SDS011;1558;42.700;23.360;2023-08-06T04:45:53;1.43;;;1.33;;
3095;SDS011;1558;42.700;23.360;2023-08-06T04:48:22;1.53;;;1.10;;
3095;SDS011;1558;42.700;23.360;2023-08-06T04:50:51;1.53;;;1.10;;
3095;SDS011;1558;42.700;23.360;2023-08-06T04:53:19;1.57;;;1.30;;
3095;SDS011;1558;42.700;23.360;2023-08-06T04:55:47;1.20;;;1.10;;
3095;SDS011;1558;42.700;23.360;2023-08-06T04:58:15;1.23;;;1.17;;
3095;SDS011;1558;42.700;23.360;2023-08-06T05:00:44;0.70;;;0.70;;
3095;SDS011;1558;42.700;23.360;2023-08-06T05:03:12;0.93;;;0.80;;
3095;SDS011;1558;42.700;23.360;2023-08-06T05:05:40;1.23;;;0.93;;
3095;SDS011;1558;42.700;23.360;2023-08-06T05:08:13;0.80;;;0.80;;
3095;SDS011;1558;42.700;23.360;2023-08-06T05:10:43;1.83;;;1.40;;
3095;SDS011;1558;42.700;23.360;2023-08-06T05:13:11;0.97;;;0.97;;
3095;SDS011;1558;42.700;23.360;2023-08-06T05:15:41;1.20;;;1.10;;
3095;SDS011;1558;42.700;23.360;2023-08-06T05:18:11;1.40;;;1.30;;
3095;SDS011;1558;42.700;23.360;2023-08-06T05:20:40;1.15;;;1.08;;
3095;SDS011;1558;42.700;23.360;2023-08-06T05:23:10;0.90;;;0.90;;
3095;SDS011;1558;42.700;23.360;2023-08-06T05:25:38;0.95;;;0.95;;
3095;SDS011;1558;42.700;23.360;2023-08-06T05:28:06;1.83;;;1.13;;
3095;SDS011;1558;42.700;23.360;2023-08-06T05:30:38;0.95;;;0.95;;
3095;SDS011;1558;42.700;23.360;2023-08-06T05:33:07;1.23;;;1.13;;
3095;SDS011;1558;42.700;23.360;2023-08-06T05:35:35;0.82;;;0.80;;
3095;SDS011;1558;42.700;23.360;2023-08-06T05:38:03;1.30;;;1.20;;
3095;SDS011;1558;42.700;23.360;2023-08-06T05:40:34;1.52;;;1.30;;
3095;SDS011;1558;42.700;23.360;2023-08-06T05:43:02;1.35;;;1.13;;
3095;SDS011;1558;42.700;23.360;2023-08-06T05:45:30;2.05;;;1.58;;
3095;SDS011;1558;42.700;23.360;2023-08-06T05:47:58;1.20;;;1.13;;
3095;SDS011;1558;42.700;23.360;2023-08-06T05:50:26;1.73;;;1.42;;
3095;SDS011;1558;42.700;23.360;2023-08-06T05:52:54;1.50;;;1.40;;
3095;SDS011;1558;42.700;23.360;2023-08-06T05:55:26;1.48;;;1.33;;
3095;SDS011;1558;42.700;23.360;2023-08-06T05:57:56;1.90;;;1.35;;
3095;SDS011;1558;42.700;23.360;2023-08-06T06:00:24;1.30;;;1.20;;
3095;SDS011;1558;42.700;23.360;2023-08-06T06:02:52;1.38;;;1.27;;
3095;SDS011;1558;42.700;23.360;2023-08-06T06:05:20;1.27;;;1.17;;
3095;SDS011;1558;42.700;23.360;2023-08-06T06:07:48;1.40;;;1.30;;
3095;SDS011;1558;42.700;23.360;2023-08-06T06:10:16;1.05;;;1.00;;
3095;SDS011;1558;42.700;23.360;2023-08-06T06:12:44;1.65;;;1.55;;
3095;SDS011;1558;42.700;23.360;2023-08-06T06:15:14;1.30;;;1.20;;
3095;SDS011;1558;42.700;23.360;2023-08-06T06:17:42;1.98;;;1.88;;
3095;SDS011;1558;42.700;23.360;2023-08-06T06:20:11;1.15;;;1.08;;
3095;SDS011;1558;42.700;23.360;2023-08-06T06:22:39;2.97;;;2.67;;
3095;SDS011;1558;42.700;23.360;2023-08-06T06:25:07;5.35;;;4.82;;
3095;SDS011;1558;42.700;23.360;2023-08-06T06:27:36;3.92;;;3.58;;
3095;SDS011;1558;42.700;23.360;2023-08-06T06:30:04;5.35;;;4.07;;
3095;SDS011;1558;42.700;23.360;2023-08-06T06:32:35;4.50;;;3.63;;
3095;SDS011;1558;42.700;23.360;2023-08-06T06:35:03;3.80;;;3.40;;
3095;SDS011;1558;42.700;23.360;2023-08-06T06:37:33;3.60;;;3.30;;
3095;SDS011;1558;42.700;23.360;2023-08-06T06:40:01;3.63;;;3.13;;
3095;SDS011;1558;42.700;23.360;2023-08-06T06:42:30;4.88;;;3.28;;
3095;SDS011;1558;42.700;23.360;2023-08-06T06:44:58;3.78;;;2.90;;
3095;SDS011;1558;42.700;23.360;2023-08-06T06:47:26;3.13;;;2.92;;
3095;SDS011;1558;42.700;23.360;2023-08-06T06:49:55;3.20;;;2.90;;
3095;SDS011;1558;42.700;23.360;2023-08-06T06:52:23;4.45;;;2.75;;
3095;SDS011;1558;42.700;23.360;2023-08-06T06:54:51;3.20;;;2.92;;
3095;SDS011;1558;42.700;23.360;2023-08-06T06:57:19;3.17;;;2.88;;
3095;SDS011;1558;42.700;23.360;2023-08-06T06:59:48;2.95;;;2.70;;
3095;SDS011;1558;42.700;23.360;2023-08-06T07:02:16;3.35;;;3.05;;
3095;SDS011;1558;42.700;23.360;2023-08-06T07:04:44;3.53;;;3.28;;
3095;SDS011;1558;42.700;23.360;2023-08-06T07:07:13;3.50;;;3.25;;
3095;SDS011;1558;42.700;23.360;2023-08-06T07:09:41;4.22;;;2.92;;
3095;SDS011;1558;42.700;23.360;2023-08-06T07:12:09;4.72;;;3.33;;
3095;SDS011;1558;42.700;23.360;2023-08-06T07:14:38;5.53;;;3.05;;
3095;SDS011;1558;42.700;23.360;2023-08-06T07:17:06;3.97;;;3.22;;
3095;SDS011;1558;42.700;23.360;2023-08-06T07:19:34;4.53;;;3.40;;
3095;SDS011;1558;42.700;23.360;2023-08-06T07:22:02;4.53;;;4.13;;
3095;SDS011;1558;42.700;23.360;2023-08-06T07:24:32;3.80;;;3.50;;
3095;SDS011;1558;42.700;23.360;2023-08-06T07:27:00;4.97;;;3.65;;
3095;SDS011;1558;42.700;23.360;2023-08-06T07:29:28;5.38;;;3.55;;
3095;SDS011;1558;42.700;23.360;2023-08-06T07:31:56;4.30;;;3.92;;
3095;SDS011;1558;42.700;23.360;2023-08-06T07:34:25;4.90;;;3.78;;
3095;SDS011;1558;42.700;23.360;2023-08-06T07:36:53;4.05;;;3.75;;
3095;SDS011;1558;42.700;23.360;2023-08-06T07:39:21;6.65;;;3.88;;
3095;SDS011;1558;42.700;23.360;2023-08-06T07:41:51;3.88;;;3.33;;
3095;SDS011;1558;42.700;23.360;2023-08-06T07:44:20;5.90;;;4.15;;
3095;SDS011;1558;42.700;23.360;2023-08-06T07:46:48;8.18;;;4.72;;
3095;SDS011;1558;42.700;23.360;2023-08-06T07:49:17;9.18;;;4.45;;
3095;SDS011;1558;42.700;23.360;2023-08-06T07:51:45;3.80;;;3.22;;
3095;SDS011;1558;42.700;23.360;2023-08-06T07:54:13;3.95;;;3.58;;
3095;SDS011;1558;42.700;23.360;2023-08-06T07:56:41;5.00;;;4.15;;
3095;SDS011;1558;42.700;23.360;2023-08-06T07:59:11;6.07;;;4.20;;
3095;SDS011;1558;42.700;23.360;2023-08-06T08:01:39;6.68;;;4.05;;
3095;SDS011;1558;42.700;23.360;2023-08-06T08:04:07;8.35;;;4.60;;
3095;SDS011;1558;42.700;23.360;2023-08-06T08:06:35;3.63;;;3.33;;
3095;SDS011;1558;42.700;23.360;2023-08-06T08:09:04;6.13;;;4.00;;
3095;SDS011;1558;42.700;23.360;2023-08-06T08:11:32;3.88;;;3.38;;
3095;SDS011;1558;42.700;23.360;2023-08-06T08:14:00;4.47;;;3.65;;
3095;SDS011;1558;42.700;23.360;2023-08-06T08:16:30;3.78;;;3.45;;
3095;SDS011;1558;42.700;23.360;2023-08-06T08:18:58;4.30;;;3.90;;
3095;SDS011;1558;42.700;23.360;2023-08-06T08:21:26;4.30;;;3.90;;
3095;SDS011;1558;42.700;23.360;2023-08-06T08:23:54;3.90;;;3.60;;
3095;SDS011;1558;42.700;23.360;2023-08-06T08:26:22;4.18;;;3.78;;
3095;SDS011;1558;42.700;23.360;2023-08-06T08:28:51;4.78;;;3.65;;
3095;SDS011;1558;42.700;23.360;2023-08-06T08:31:19;4.45;;;4.05;;
3095;SDS011;1558;42.700;23.360;2023-08-06T08:33:48;4.22;;;3.83;;
3095;SDS011;1558;42.700;23.360;2023-08-06T08:36:21;3.90;;;3.60;;
3095;SDS011;1558;42.700;23.360;2023-08-06T08:38:49;3.90;;;3.60;;
3095;SDS011;1558;42.700;23.360;2023-08-06T08:41:20;5.32;;;4.93;;
3095;SDS011;1558;42.700;23.360;2023-08-06T08:43:48;4.20;;;3.90;;
3095;SDS011;1558;42.700;23.360;2023-08-06T08:46:18;4.18;;;3.88;;
3095;SDS011;1558;42.700;23.360;2023-08-06T08:48:49;4.13;;;3.72;;
3095;SDS011;1558;42.700;23.360;2023-08-06T08:51:17;3.97;;;3.67;;
3095;SDS011;1558;42.700;23.360;2023-08-06T08:53:46;4.68;;;4.28;;
3095;SDS011;1558;42.700;23.360;2023-08-06T08:56:20;3.75;;;3.53;;
3095;SDS011;1558;42.700;23.360;2023-08-06T08:58:49;4.10;;;3.75;;
3095;SDS011;1558;42.700;23.360;2023-08-06T09:01:21;4.18;;;3.80;;
3095;SDS011;1558;42.700;23.360;2023-08-06T09:03:52;4.25;;;3.95;;
3095;SDS011;1558;42.700;23.360;2023-08-06T09:06:31;3.92;;;3.50;;
3095;SDS011;1558;42.700;23.360;2023-08-06T09:09:07;4.20;;;3.90;;
3095;SDS011;1558;42.700;23.360;2023-08-06T09:11:42;5.25;;;4.07;;
3095;SDS011;1558;42.700;23.360;2023-08-06T09:14:11;4.75;;;4.20;;
3095;SDS011;1558;42.700;23.360;2023-08-06T09:16:39;4.38;;;4.07;;
3095;SDS011;1558;42.700;23.360;2023-08-06T09:19:10;5.45;;;4.90;;
3095;SDS011;1558;42.700;23.360;2023-08-06T09:21:39;4.20;;;3.90;;
3095;SDS011;1558;42.700;23.360;2023-08-06T09:24:08;4.07;;;3.78;;
3095;SDS011;1558;42.700;23.360;2023-08-06T09:26:37;4.00;;;3.67;;
3095;SDS011;1558;42.700;23.360;2023-08-06T09:29:05;4.00;;;3.70;;
3095;SDS011;1558;42.700;23.360;2023-08-06T09:31:38;4.20;;;3.80;;
3095;SDS011;1558;42.700;23.360;2023-08-06T09:34:14;4.28;;;3.92;;
3095;SDS011;1558;42.700;23.360;2023-08-06T09:36:43;4.95;;;4.55;;
3095;SDS011;1558;42.700;23.360;2023-08-06T09:39:13;4.30;;;3.90;;
3095;SDS011;1558;42.700;23.360;2023-08-06T09:41:42;4.90;;;4.47;;
3095;SDS011;1558;42.700;23.360;2023-08-06T09:44:14;4.35;;;3.97;;
3095;SDS011;1558;42.700;23.360;2023-08-06T09:46:47;4.00;;;3.72;;
3095;SDS011;1558;42.700;23.360;2023-08-06T09:49:17;6.25;;;5.70;;
3095;SDS011;1558;42.700;23.360;2023-08-06T09:51:49;30.05;;;25.42;;
3095;SDS011;1558;42.700;23.360;2023-08-06T09:54:24;6.47;;;5.95;;
3095;SDS011;1558;42.700;23.360;2023-08-06T09:56:54;37.00;;;26.80;;
3095;SDS011;1558;42.700;23.360;2023-08-06T09:59:23;20.25;;;16.23;;
3095;SDS011;1558;42.700;23.360;2023-08-06T10:01:51;4.50;;;4.20;;
3095;SDS011;1558;42.700;23.360;2023-08-06T10:04:24;3.28;;;3.03;;
3095;SDS011;1558;42.700;23.360;2023-08-06T10:07:03;3.45;;;3.10;;
3095;SDS011;1558;42.700;23.360;2023-08-06T10:09:51;4.53;;;3.60;;
3095;SDS011;1558;42.700;23.360;2023-08-06T10:12:19;3.47;;;3.17;;
3095;SDS011;1558;42.700;23.360;2023-08-06T10:14:48;3.67;;;3.38;;
3095;SDS011;1558;42.700;23.360;2023-08-06T10:17:18;3.42;;;3.13;;
3095;SDS011;1558;42.700;23.360;2023-08-06T10:19:51;3.47;;;3.13;;
3095;SDS011;1558;42.700;23.360;2023-08-06T10:22:21;4.40;;;3.40;;
3095;SDS011;1558;42.700;23.360;2023-08-06T10:24:51;3.42;;;3.10;;
3095;SDS011;1558;42.700;23.360;2023-08-06T10:27:20;3.45;;;3.15;;
3095;SDS011;1558;42.700;23.360;2023-08-06T10:29:49;3.95;;;3.28;;
3095;SDS011;1558;42.700;23.360;2023-08-06T10:32:17;3.65;;;3.35;;
3095;SDS011;1558;42.700;23.360;2023-08-06T10:34:56;3.72;;;3.28;;
3095;SDS011;1558;42.700;23.360;2023-08-06T10:37:34;4.38;;;3.40;;
3095;SDS011;1558;42.700;23.360;2023-08-06T10:40:03;4.30;;;3.55;;
3095;SDS011;1558;42.700;23.360;2023-08-06T10:42:34;3.40;;;3.10;;
3095;SDS011;1558;42.700;23.360;2023-08-06T10:45:13;3.33;;;3.03;;
3095;SDS011;1558;42.700;23.360;2023-08-06T10:47:42;3.80;;;3.47;;
3095;SDS011;1558;42.700;23.360;2023-08-06T10:50:13;3.75;;;3.40;;
3095;SDS011;1558;42.700;23.360;2023-08-06T10:52:43;4.20;;;3.17;;
3095;SDS011;1558;42.700;23.360;2023-08-06T10:55:12;3.35;;;3.05;;
3095;SDS011;1558;42.700;23.360;2023-08-06T10:57:40;4.93;;;4.43;;
3095;SDS011;1558;42.700;23.360;2023-08-06T11:00:09;4.00;;;3.65;;
3095;SDS011;1558;42.700;23.360;2023-08-06T11:02:43;3.40;;;3.10;;
3095;SDS011;1558;42.700;23.360;2023-08-06T11:05:13;4.05;;;3.65;;
3095;SDS011;1558;42.700;23.360;2023-08-06T11:07:41;4.35;;;4.05;;
3095;SDS011;1558;42.700;23.360;2023-08-06T11:10:11;4.70;;;4.15;;
3095;SDS011;1558;42.700;23.360;2023-08-06T11:12:40;4.22;;;3.83;;
3095;SDS011;1558;42.700;23.360;2023-08-06T11:15:08;4.40;;;4.00;;
3095;SDS011;1558;42.700;23.360;2023-08-06T11:17:39;4.72;;;4.38;;
3095;SDS011;1558;42.700;23.360;2023-08-06T11:20:08;7.20;;;4.25;;
3095;SDS011;1558;42.700;23.360;2023-08-06T11:22:38;4.57;;;4.18;;
3095;SDS011;1558;42.700;23.360;2023-08-06T11:25:07;4.43;;;4.10;;
3095;SDS011;1558;42.700;23.360;2023-08-06T11:27:35;5.10;;;4.63;;
3095;SDS011;1558;42.700;23.360;2023-08-06T11:30:05;5.40;;;4.90;;
3095;SDS011;1558;42.700;23.360;2023-08-06T11:32:44;5.82;;;5.00;;
3095;SDS011;1558;42.700;23.360;2023-08-06T11:35:14;5.40;;;5.00;;
3095;SDS011;1558;42.700;23.360;2023-08-06T11:37:44;5.43;;;4.72;;
3095;SDS011;1558;42.700;23.360;2023-08-06T11:40:14;5.53;;;4.63;;
3095;SDS011;1558;42.700;23.360;2023-08-06T11:42:42;5.03;;;4.65;;
3095;SDS011;1558;42.700;23.360;2023-08-06T11:45:10;6.28;;;4.75;;
3095;SDS011;1558;42.700;23.360;2023-08-06T11:47:39;6.40;;;4.75;;
3095;SDS011;1558;42.700;23.360;2023-08-06T11:50:08;5.20;;;4.80;;
3095;SDS011;1558;42.700;23.360;2023-08-06T11:52:38;7.22;;;5.05;;
3095;SDS011;1558;42.700;23.360;2023-08-06T11:55:10;5.55;;;5.00;;
3095;SDS011;1558;42.700;23.360;2023-08-06T11:57:38;7.05;;;5.25;;
3095;SDS011;1558;42.700;23.360;2023-08-06T12:00:07;5.60;;;5.03;;
3095;SDS011;1558;42.700;23.360;2023-08-06T12:02:38;5.65;;;5.25;;
3095;SDS011;1558;42.700;23.360;2023-08-06T12:05:11;5.53;;;5.13;;
3095;SDS011;1558;42.700;23.360;2023-08-06T12:07:41;5.13;;;4.68;;
3095;SDS011;1558;42.700;23.360;2023-08-06T12:10:12;5.95;;;5.35;;
3095;SDS011;1558;42.700;23.360;2023-08-06T12:12:41;5.60;;;5.20;;
3095;SDS011;1558;42.700;23.360;2023-08-06T12:15:10;6.72;;;6.10;;
3095;SDS011;1558;42.700;23.360;2023-08-06T12:17:38;5.75;;;5.25;;
3095;SDS011;1558;42.700;23.360;2023-08-06T12:20:07;6.10;;;5.70;;
3095;SDS011;1558;42.700;23.360;2023-08-06T12:22:36;6.10;;;5.63;;
3095;SDS011;1558;42.700;23.360;2023-08-06T12:25:06;6.15;;;5.65;;
3095;SDS011;1558;42.700;23.360;2023-08-06T12:27:40;7.32;;;6.75;;
3095;SDS011;1558;42.700;23.360;2023-08-06T12:30:09;6.75;;;6.25;;
3095;SDS011;1558;42.700;23.360;2023-08-06T12:32:38;6.57;;;5.78;;
3095;SDS011;1558;42.700;23.360;2023-08-06T12:35:09;7.10;;;6.57;;
3095;SDS011;1558;42.700;23.360;2023-08-06T12:37:37;6.32;;;5.82;;
3095;SDS011;1558;42.700;23.360;2023-08-06T12:40:06;7.18;;;6.47;;
3095;SDS011;1558;42.700;23.360;2023-08-06T12:42:56;7.82;;;7.22;;
3095;SDS011;1558;42.700;23.360;2023-08-06T12:45:25;8.15;;;7.45;;
3095;SDS011;1558;42.700;23.360;2023-08-06T12:47:53;6.40;;;6.00;;
3095;SDS011;1558;42.700;23.360;2023-08-06T12:50:21;7.25;;;6.65;;
3095;SDS011;1558;42.700;23.360;2023-08-06T12:52:49;6.65;;;6.05;;
3095;SDS011;1558;42.700;23.360;2023-08-06T12:55:17;10.02;;;6.40;;
3095;SDS011;1558;42.700;23.360;2023-08-06T12:57:45;6.32;;;5.80;;
3095;SDS011;1558;42.700;23.360;2023-08-06T13:00:25;7.07;;;6.47;;
3095;SDS011;1558;42.700;23.360;2023-08-06T13:02:54;6.78;;;6.07;;
3095;SDS011;1558;42.700;23.360;2023-08-06T13:05:22;6.22;;;5.70;;
3095;SDS011;1558;42.700;23.360;2023-08-06T13:07:50;6.93;;;6.32;;
3095;SDS011;1558;42.700;23.360;2023-08-06T13:10:18;6.60;;;5.93;;
3095;SDS011;1558;42.700;23.360;2023-08-06T13:12:47;7.47;;;6.80;;
3095;SDS011;1558;42.700;23.360;2023-08-06T13:15:15;8.27;;;7.47;;
3095;SDS011;1558;42.700;23.360;2023-08-06T13:17:47;8.00;;;6.72;;
3095;SDS011;1558;42.700;23.360;2023-08-06T13:20:18;6.45;;;5.90;;
3095;SDS011;1558;42.700;23.360;2023-08-06T13:22:47;5.95;;;5.53;;
3095;SDS011;1558;42.700;23.360;2023-08-06T13:25:17;6.20;;;5.70;;
3095;SDS011;1558;42.700;23.360;2023-08-06T13:27:46;5.82;;;5.32;;
3095;SDS011;1558;42.700;23.360;2023-08-06T13:30:15;5.78;;;5.38;;
3095;SDS011;1558;42.700;23.360;2023-08-06T13:32:46;6.03;;;5.25;;
3095;SDS011;1558;42.700;23.360;2023-08-06T13:35:17;6.13;;;5.63;;
3095;SDS011;1558;42.700;23.360;2023-08-06T13:37:45;6.53;;;5.93;;
3095;SDS011;1558;42.700;23.360;2023-08-06T13:40:14;5.43;;;5.03;;
3095;SDS011;1558;42.700;23.360;2023-08-06T13:42:42;7.03;;;6.20;;
3095;SDS011;1558;42.700;23.360;2023-08-06T13:45:11;6.30;;;5.70;;
3095;SDS011;1558;42.700;23.360;2023-08-06T13:47:39;6.47;;;5.60;;
3095;SDS011;1558;42.700;23.360;2023-08-06T13:50:09;6.45;;;5.85;;
3095;SDS011;1558;42.700;23.360;2023-08-06T13:52:37;6.63;;;5.97;;
3095;SDS011;1558;42.700;23.360;2023-08-06T13:55:05;6.20;;;5.60;;
3095;SDS011;1558;42.700;23.360;2023-08-06T13:57:34;6.60;;;6.00;;
3095;SDS011;1558;42.700;23.360;2023-08-06T14:00:03;6.57;;;6.07;;
3095;SDS011;1558;42.700;23.360;2023-08-06T14:02:34;6.10;;;5.60;;
3095;SDS011;1558;42.700;23.360;2023-08-06T14:05:03;6.35;;;5.50;;
3095;SDS011;1558;42.700;23.360;2023-08-06T14:07:32;6.90;;;6.20;;
3095;SDS011;1558;42.700;23.360;2023-08-06T14:10:01;6.43;;;5.72;;
3095;SDS011;1558;42.700;23.360;2023-08-06T14:12:29;6.13;;;5.63;;
3095;SDS011;1558;42.700;23.360;2023-08-06T14:14:57;7.13;;;6.43;;
3095;SDS011;1558;42.700;23.360;2023-08-06T14:17:25;6.93;;;6.05;;
3095;SDS011;1558;42.700;23.360;2023-08-06T14:19:54;6.13;;;5.72;;
3095;SDS011;1558;42.700;23.360;2023-08-06T14:22:22;6.05;;;5.55;;
3095;SDS011;1558;42.700;23.360;2023-08-06T14:24:51;6.55;;;5.53;;
3095;SDS011;1558;42.700;23.360;2023-08-06T14:27:21;5.72;;;5.32;;
3095;SDS011;1558;42.700;23.360;2023-08-06T14:29:49;5.97;;;5.47;;
3095;SDS011;1558;42.700;23.360;2023-08-06T14:32:18;6.60;;;6.00;;
3095;SDS011;1558;42.700;23.360;2023-08-06T14:34:48;6.28;;;5.72;;
3095;SDS011;1558;42.700;23.360;2023-08-06T14:37:16;5.68;;;5.28;;
3095;SDS011;1558;42.700;23.360;2023-08-06T14:39:44;6.97;;;4.93;;
3095;SDS011;1558;42.700;23.360;2023-08-06T14:42:13;6.10;;;5.57;;
3095;SDS011;1558;42.700;23.360;2023-08-06T14:44:41;6.38;;;5.88;;
3095;SDS011;1558;42.700;23.360;2023-08-06T14:47:09;6.20;;;5.60;;
3095;SDS011;1558;42.700;23.360;2023-08-06T14:49:38;6.50;;;5.78;;
3095;SDS011;1558;42.700;23.360;2023-08-06T14:52:07;7.47;;;5.93;;
3095;SDS011;1558;42.700;23.360;2023-08-06T14:54:35;7.50;;;6.80;;
3095;SDS011;1558;42.700;23.360;2023-08-06T14:57:03;6.93;;;6.25;;
3095;SDS011;1558;42.700;23.360;2023-08-06T14:59:33;6.70;;;6.07;;
3095;SDS011;1558;42.700;23.360;2023-08-06T15:02:05;6.75;;;6.15;;
3095;SDS011;1558;42.700;23.360;2023-08-06T15:04:33;6.07;;;5.45;;
3095;SDS011;1558;42.700;23.360;2023-08-06T15:07:01;5.70;;;5.30;;
3095;SDS011;1558;42.700;23.360;2023-08-06T15:09:30;6.50;;;5.90;;
3095;SDS011;1558;42.700;23.360;2023-08-06T15:12:18;6.18;;;5.22;;
3095;SDS011;1558;42.700;23.360;2023-08-06T15:14:48;6.70;;;6.20;;